sensor_id;sensor_type;location;lat;lon;timestamp;pressure;altitude;pressure_sealevel;temperature;humidity
38400;BME280;24180;42.676;23.320;2023-11-19T00:01:45;94697.38;;;3.01;76.82
38400;BME280;24180;42.676;23.320;2023-11-19T00:04:12;94748.34;;;3.04;76.83
38400;BME280;24180;42.676;23.320;2023-11-19T00:06:38;94694.69;;;2.90;76.82
38400;BME280;24180;42.676;23.320;2023-11-19T00:09:04;94734.72;;;3.03;76.83
38400;BME280;24180;42.676;23.320;2023-11-19T00:11:30;94726.22;;;3.03;76.83
38400;BME280;24180;42.676;23.320;2023-11-19T00:13:55;94687.50;;;2.82;76.86
38400;BME280;24180;42.676;23.320;2023-11-19T00:16:20;94721.31;;;3.00;76.82
38400;BME280;24180;42.676;23.320;2023-11-19T00:18:46;94695.88;;;2.71;76.79
38400;BME280;24180;42.676;23.320;2023-11-19T00:21:11;94736.22;;;2.93;76.82
38400;BME280;24180;42.676;23.320;2023-11-19T00:23:37;94739.94;;;3.02;76.87
38400;BME280;24180;42.676;23.320;2023-11-19T00:26:03;94744.41;;;2.98;76.82
38400;BME280;24180;42.676;23.320;2023-11-19T00:28:32;94736.66;;;3.00;76.87
38400;BME280;24180;42.676;23.320;2023-11-19T00:30:58;94727.84;;;2.91;76.86
38400;BME280;24180;42.676;23.320;2023-11-19T00:33:23;94749.97;;;3.05;76.88
38400;BME280;24180;42.676;23.320;2023-11-19T00:35:49;94703.09;;;2.92;76.86
38400;BME280;24180;42.676;23.320;2023-11-19T00:38:15;94673.91;;;2.81;76.86
38400;BME280;24180;42.676;23.320;2023-11-19T00:40:41;94737.47;;;3.00;76.87
38400;BME280;24180;42.676;23.320;2023-11-19T00:43:06;94719.41;;;2.76;76.85
38400;BME280;24180;42.676;23.320;2023-11-19T00:45:32;94730.47;;;2.90;76.86
38400;BME280;24180;42.676;23.320;2023-11-19T00:47:58;94752.00;;;3.00;76.87
38400;BME280;24180;42.676;23.320;2023-11-19T00:50:25;94714.13;;;2.92;76.86
38400;BME280;24180;42.676;23.320;2023-11-19T00:52:50;94741.97;;;2.97;76.87
38400;BME280;24180;42.676;23.320;2023-11-19T00:55:16;60074.50;;;24.39;78.78
38400;BME280;24180;42.676;23.320;2023-11-19T00:57:42;94713.06;;;2.82;76.86
38400;BME280;24180;42.676;23.320;2023-11-19T01:00:08;94753.22;;;2.94;76.87
38400;BME280;24180;42.676;23.320;2023-11-19T01:02:43;94676.81;;;2.63;76.83
38400;BME280;24180;42.676;23.320;2023-11-19T01:05:09;94741.53;;;2.90;76.86
38400;BME280;24180;42.676;23.320;2023-11-19T01:07:34;94698.75;;;2.79;76.85
38400;BME280;24180;42.676;23.320;2023-11-19T01:10:00;94746.06;;;2.99;76.82
38400;BME280;24180;42.676;23.320;2023-11-19T01:12:26;94755.28;;;3.02;76.87
38400;BME280;24180;42.676;23.320;2023-11-19T01:14:51;94719.41;;;2.76;76.80
38400;BME280;24180;42.676;23.320;2023-11-19T01:17:16;94747.38;;;2.92;76.82
38400;BME280;24180;42.676;23.320;2023-11-19T01:19:42;94722.69;;;2.78;76.81
38400;BME280;24180;42.676;23.320;2023-11-19T01:22:07;94720.47;;;2.87;76.81
38400;BME280;24180;42.676;23.320;2023-11-19T01:24:33;94744.22;;;2.89;76.81
38400;BME280;24180;42.676;23.320;2023-11-19T01:26:59;94735.38;;;2.80;76.81
38400;BME280;24180;42.676;23.320;2023-11-19T01:29:25;94758.63;;;2.90;76.86
38400;BME280;24180;42.676;23.320;2023-11-19T01:31:50;94699.75;;;2.64;76.79
38400;BME280;24180;42.676;23.320;2023-11-19T01:34:19;94723.75;;;2.89;76.81
38400;BME280;24180;42.676;23.320;2023-11-19T01:36:44;94767.56;;;2.97;76.87
38400;BME280;24180;42.676;23.320;2023-11-19T01:39:11;94751.75;;;2.90;76.86
38400;BME280;24180;42.676;23.320;2023-11-19T01:41:37;94762.63;;;2.94;76.82
38400;BME280;24180;42.676;23.320;2023-11-19T01:44:05;94743.34;;;2.75;76.80
38400;BME280;24180;42.676;23.320;2023-11-19T01:46:31;94769.56;;;2.92;76.86
38400;BME280;24180;42.676;23.320;2023-11-19T01:48:58;94778.97;;;2.91;76.86
38400;BME280;24180;42.676;23.320;2023-11-19T01:51:25;94780.00;;;2.89;76.86
38400;BME280;24180;42.676;23.320;2023-11-19T01:53:50;94748.66;;;2.72;76.84
38400;BME280;24180;42.676;23.320;2023-11-19T01:56:16;94768.34;;;2.85;76.81
38400;BME280;24180;42.676;23.320;2023-11-19T01:58:43;94748.66;;;2.72;76.84
38400;BME280;24180;42.676;23.320;2023-11-19T02:01:10;94760.91;;;2.67;76.84
38400;BME280;24180;42.676;23.320;2023-11-19T02:03:36;94762.34;;;2.71;76.84
38400;BME280;24180;42.676;23.320;2023-11-19T02:06:03;94737.34;;;2.62;76.83
38400;BME280;24180;42.676;23.320;2023-11-19T02:08:31;94721.31;;;2.60;76.83
38400;BME280;24180;42.676;23.320;2023-11-19T02:10:57;94758.88;;;2.72;76.84
38400;BME280;24180;42.676;23.320;2023-11-19T02:13:26;94707.25;;;2.53;76.83
38400;BME280;24180;42.676;23.320;2023-11-19T02:15:51;94729.34;;;2.54;76.83
38400;BME280;24180;42.676;23.320;2023-11-19T02:18:22;94731.47;;;2.74;76.84
38400;BME280;24180;42.676;23.320;2023-11-19T02:20:49;94677.19;;;2.44;76.82
38400;BME280;24180;42.676;23.320;2023-11-19T02:23:15;94752.31;;;2.68;76.84
38400;BME280;24180;42.676;23.320;2023-11-19T02:25:40;94746.75;;;2.62;76.83
38400;BME280;24180;42.676;23.320;2023-11-19T02:28:07;94751.03;;;2.61;76.83
38400;BME280;24180;42.676;23.320;2023-11-19T02:30:32;94727.53;;;2.56;76.83
38400;BME280;24180;42.676;23.320;2023-11-19T02:32:58;94778.44;;;2.59;76.83
38400;BME280;24180;42.676;23.320;2023-11-19T02:35:27;94760.44;;;2.61;76.83
38400;BME280;24180;42.676;23.320;2023-11-19T02:37:56;94745.50;;;2.55;76.83
38400;BME280;24180;42.676;23.320;2023-11-19T02:40:21;94765.31;;;2.51;76.82
38400;BME280;24180;42.676;23.320;2023-11-19T02:42:49;94770.22;;;2.54;76.83
38400;BME280;24180;42.676;23.320;2023-11-19T02:45:14;94736.44;;;2.37;76.81
38400;BME280;24180;42.676;23.320;2023-11-19T02:47:41;94706.81;;;2.47;76.81
38400;BME280;24180;42.676;23.320;2023-11-19T02:50:08;94746.38;;;2.27;76.80
38400;BME280;24180;42.676;23.320;2023-11-19T02:52:43;94736.44;;;2.37;76.81
38400;BME280;24180;42.676;23.320;2023-11-19T02:55:10;94744.53;;;2.43;76.82
38400;BME280;24180;42.676;23.320;2023-11-19T02:57:41;94755.84;;;2.39;76.81
38400;BME280;24180;42.676;23.320;2023-11-19T03:00:20;94734.72;;;2.23;76.79
38400;BME280;24180;42.676;23.320;2023-11-19T03:02:51;94733.06;;;2.22;76.79
38400;BME280;24180;42.676;23.320;2023-11-19T03:05:35;94744.19;;;2.35;76.80
38400;BME280;24180;42.676;23.320;2023-11-19T03:08:00;94729.97;;;2.31;76.76
38400;BME280;24180;42.676;23.320;2023-11-19T03:10:26;94707.59;;;2.34;76.80
38400;BME280;24180;42.676;23.320;2023-11-19T03:12:52;94750.41;;;2.31;76.81
38400;BME280;24180;42.676;23.320;2023-11-19T03:15:17;94745.97;;;2.20;76.79
38400;BME280;24180;42.676;23.320;2023-11-19T03:17:43;60059.09;;;24.23;78.78
38400;BME280;24180;42.676;23.320;2023-11-19T03:20:10;94740.84;;;2.20;76.79
38400;BME280;24180;42.676;23.320;2023-11-19T03:22:39;60015.88;;;24.23;78.78
38400;BME280;24180;42.676;23.320;2023-11-19T03:25:07;94755.59;;;2.29;76.81
38400;BME280;24180;42.676;23.320;2023-11-19T03:27:37;94735.28;;;2.14;76.79
38400;BME280;24180;42.676;23.320;2023-11-19T03:30:09;94759.44;;;2.22;76.79
38400;BME280;24180;42.676;23.320;2023-11-19T03:32:35;94738.38;;;2.19;76.80
38400;BME280;24180;42.676;23.320;2023-11-19T03:35:01;94745.97;;;2.20;76.75
38400;BME280;24180;42.676;23.320;2023-11-19T03:37:27;94756.97;;;2.21;76.75
38400;BME280;24180;42.676;23.320;2023-11-19T03:39:59;94743.28;;;2.22;76.75
38400;BME280;24180;42.676;23.320;2023-11-19T03:42:26;94722.84;;;2.22;76.74
38400;BME280;24180;42.676;23.320;2023-11-19T03:44:52;94795.41;;;2.19;76.80
38400;BME280;24180;42.676;23.320;2023-11-19T03:47:18;94760.75;;;2.15;76.79
38400;BME280;24180;42.676;23.320;2023-11-19T03:49:50;94764.94;;;2.16;76.79
38400;BME280;24180;42.676;23.320;2023-11-19T03:52:16;94765.00;;;2.01;76.73
38400;BME280;24180;42.676;23.320;2023-11-19T03:54:42;94782.72;;;2.18;76.75
38400;BME280;24180;42.676;23.320;2023-11-19T03:57:07;94774.88;;;2.07;76.79
38400;BME280;24180;42.676;23.320;2023-11-19T03:59:35;94745.97;;;2.06;76.74
38400;BME280;24180;42.676;23.320;2023-11-19T04:02:01;94781.06;;;2.17;76.75
38400;BME280;24180;42.676;23.320;2023-11-19T04:04:27;94762.66;;;2.12;76.74
38400;BME280;24180;42.676;23.320;2023-11-19T04:06:53;94777.78;;;2.15;76.75
38400;BME280;24180;42.676;23.320;2023-11-19T04:09:19;94801.13;;;2.23;76.75
38400;BME280;24180;42.676;23.320;2023-11-19T04:11:44;94795.84;;;2.26;76.75
38400;BME280;24180;42.676;23.320;2023-11-19T04:14:15;94768.28;;;2.17;76.75
38400;BME280;24180;42.676;23.320;2023-11-19T04:16:43;94813.72;;;2.40;76.81
38400;BME280;24180;42.676;23.320;2023-11-19T04:19:08;94811.06;;;2.42;76.82
38400;BME280;24180;42.676;23.320;2023-11-19T04:21:34;94810.78;;;2.46;76.77
38400;BME280;24180;42.676;23.320;2023-11-19T04:23:59;94813.06;;;2.51;76.82
38400;BME280;24180;42.676;23.320;2023-11-19T04:26:25;94824.19;;;2.50;76.78
38400;BME280;24180;42.676;23.320;2023-11-19T04:28:50;94786.88;;;2.33;76.76
38400;BME280;24180;42.676;23.320;2023-11-19T04:31:16;94825.41;;;2.44;76.82
38400;BME280;24180;42.676;23.320;2023-11-19T04:33:42;59932.03;;;24.23;78.78
38400;BME280;24180;42.676;23.320;2023-11-19T04:36:09;94819.63;;;2.55;76.83
38400;BME280;24180;42.676;23.320;2023-11-19T04:38:34;94802.47;;;2.43;76.82
38400;BME280;24180;42.676;23.320;2023-11-19T04:41:00;94803.94;;;2.47;76.81
38400;BME280;24180;42.676;23.320;2023-11-19T04:43:26;94795.25;;;2.49;76.82
38400;BME280;24180;42.676;23.320;2023-11-19T04:45:51;94787.97;;;2.43;76.82
38400;BME280;24180;42.676;23.320;2023-11-19T04:48:16;94828.13;;;2.55;76.83
38400;BME280;24180;42.676;23.320;2023-11-19T04:50:42;94844.91;;;2.59;76.83
38400;BME280;24180;42.676;23.320;2023-11-19T04:53:07;60059.09;;;24.23;78.88
38400;BME280;24180;42.676;23.320;2023-11-19T04:55:33;94813.06;;;2.51;76.82
38400;BME280;24180;42.676;23.320;2023-11-19T04:57:58;94830.31;;;2.47;76.82
38400;BME280;24180;42.676;23.320;2023-11-19T05:00:24;94818.84;;;2.40;76.81
38400;BME280;24180;42.676;23.320;2023-11-19T05:02:49;94859.69;;;2.68;76.84
38400;BME280;24180;42.676;23.320;2023-11-19T05:05:15;94867.63;;;2.64;76.83
38400;BME280;24180;42.676;23.320;2023-11-19T05:07:41;94852.66;;;2.58;76.83
38400;BME280;24180;42.676;23.320;2023-11-19T05:10:07;94848.75;;;2.52;76.83
38400;BME280;24180;42.676;23.320;2023-11-19T05:12:32;94865.34;;;2.59;76.83
38400;BME280;24180;42.676;23.320;2023-11-19T05:14:58;94862.25;;;2.54;76.83
38400;BME280;24180;42.676;23.320;2023-11-19T05:17:23;94877.22;;;2.60;76.83
38400;BME280;24180;42.676;23.320;2023-11-19T05:19:49;94873.94;;;2.58;76.84
38400;BME280;24180;42.676;23.320;2023-11-19T05:22:14;94834.41;;;2.50;76.82
38400;BME280;24180;42.676;23.320;2023-11-19T05:24:40;94875.59;;;2.59;76.83
38400;BME280;24180;42.676;23.320;2023-11-19T05:27:06;94837.78;;;2.50;76.82
38400;BME280;24180;42.676;23.320;2023-11-19T05:29:33;94847.31;;;2.48;76.82
38400;BME280;24180;42.676;23.320;2023-11-19T05:31:58;94850.56;;;2.50;76.82
38400;BME280;24180;42.676;23.320;2023-11-19T05:34:24;94853.47;;;2.58;76.84
38400;BME280;24180;42.676;23.320;2023-11-19T05:36:50;94854.50;;;2.56;76.83
38400;BME280;24180;42.676;23.320;2023-11-19T05:39:16;94848.91;;;2.49;76.82
38400;BME280;24180;42.676;23.320;2023-11-19T05:41:42;94865.56;;;2.56;76.83
38400;BME280;24180;42.676;23.320;2023-11-19T05:44:07;94866.09;;;2.47;76.82
38400;BME280;24180;42.676;23.320;2023-11-19T05:46:32;94879.22;;;2.55;76.83
38400;BME280;24180;42.676;23.320;2023-11-19T05:48:58;94872.47;;;2.54;76.83
38400;BME280;24180;42.676;23.320;2023-11-19T05:51:23;60017.19;;;24.39;78.78
38400;BME280;24180;42.676;23.320;2023-11-19T05:53:50;94872.91;;;2.61;76.83
38400;BME280;24180;42.676;23.320;2023-11-19T05:56:15;94942.69;;;2.63;76.83
38400;BME280;24180;42.676;23.320;2023-11-19T05:58:46;94879.59;;;2.49;76.82
38400;BME280;24180;42.676;23.320;2023-11-19T06:01:13;94863.16;;;2.53;76.83
38400;BME280;24180;42.676;23.320;2023-11-19T06:03:39;94878.03;;;2.61;76.83
38400;BME280;24180;42.676;23.320;2023-11-19T06:06:04;94900.75;;;2.65;76.84
38400;BME280;24180;42.676;23.320;2023-11-19T06:08:30;94904.41;;;2.61;76.83
38400;BME280;24180;42.676;23.320;2023-11-19T06:10:56;94902.78;;;2.60;76.83
38400;BME280;24180;42.676;23.320;2023-11-19T06:13:22;94909.53;;;2.61;76.83
38400;BME280;24180;42.676;23.320;2023-11-19T06:15:47;94891.03;;;2.44;76.82
38400;BME280;24180;42.676;23.320;2023-11-19T06:18:13;94858.06;;;2.39;76.81
38400;BME280;24180;42.676;23.320;2023-11-19T06:20:40;94850.00;;;2.45;76.78
38400;BME280;24180;42.676;23.320;2023-11-19T06:23:06;94880.78;;;2.44;76.82
38400;BME280;24180;42.676;23.320;2023-11-19T06:25:31;94850.22;;;2.28;77.07
38400;BME280;24180;42.676;23.320;2023-11-19T06:27:57;94871.22;;;2.47;76.82
38400;BME280;24180;42.676;23.320;2023-11-19T06:30:23;94844.19;;;2.43;76.82
38400;BME280;24180;42.676;23.320;2023-11-19T06:32:49;94917.03;;;2.50;76.82
38400;BME280;24180;42.676;23.320;2023-11-19T06:35:14;94883.72;;;2.52;76.82
38400;BME280;24180;42.676;23.320;2023-11-19T06:37:40;94863.91;;;2.27;76.80
38400;BME280;24180;42.676;23.320;2023-11-19T06:40:06;94893.03;;;2.39;76.81
38400;BME280;24180;42.676;23.320;2023-11-19T06:42:34;94891.75;;;2.31;76.81
38400;BME280;24180;42.676;23.320;2023-11-19T06:45:00;60059.09;;;24.23;78.74
38400;BME280;24180;42.676;23.320;2023-11-19T06:47:26;94919.84;;;2.46;76.82
38400;BME280;24180;42.676;23.320;2023-11-19T06:49:53;60057.78;;;24.23;78.78
38400;BME280;24180;42.676;23.320;2023-11-19T06:52:18;94866.81;;;2.49;76.82
38400;BME280;24180;42.676;23.320;2023-11-19T06:54:44;94884.91;;;2.60;76.83
38400;BME280;24180;42.676;23.320;2023-11-19T06:57:11;94883.53;;;2.26;76.80
38400;BME280;24180;42.676;23.320;2023-11-19T06:59:37;60059.09;;;24.39;78.78
38400;BME280;24180;42.676;23.320;2023-11-19T07:02:02;94928.34;;;2.32;76.81
38400;BME280;24180;42.676;23.320;2023-11-19T07:04:28;94899.03;;;2.23;76.79
38400;BME280;24180;42.676;23.320;2023-11-19T07:06:53;94942.31;;;2.41;76.81
38400;BME280;24180;42.676;23.320;2023-11-19T07:09:18;94900.94;;;2.34;76.80
38400;BME280;24180;42.676;23.320;2023-11-19T07:11:44;94927.41;;;2.19;76.80
38400;BME280;24180;42.676;23.320;2023-11-19T07:14:11;94890.38;;;2.12;76.78
38400;BME280;24180;42.676;23.320;2023-11-19T07:16:37;94894.75;;;2.24;76.79
38400;BME280;24180;42.676;23.320;2023-11-19T07:19:04;94894.03;;;2.36;76.80
38400;BME280;24180;42.676;23.320;2023-11-19T07:21:31;94896.03;;;2.31;76.81
38400;BME280;24180;42.676;23.320;2023-11-19T07:23:58;94928.06;;;2.51;76.82
38400;BME280;24180;42.676;23.320;2023-11-19T07:26:23;94906.78;;;2.50;76.82
38400;BME280;24180;42.676;23.320;2023-11-19T07:28:49;94926.91;;;2.56;76.83
38400;BME280;24180;42.676;23.320;2023-11-19T07:31:15;60057.78;;;24.23;78.78
38400;BME280;24180;42.676;23.320;2023-11-19T07:33:41;94942.94;;;2.44;76.82
38400;BME280;24180;42.676;23.320;2023-11-19T07:36:10;94945.66;;;2.27;76.80
38400;BME280;24180;42.676;23.320;2023-11-19T07:38:38;60059.09;;;24.23;78.78
38400;BME280;24180;42.676;23.320;2023-11-19T07:41:05;94924.31;;;2.42;76.82
38400;BME280;24180;42.676;23.320;2023-11-19T07:43:33;94927.25;;;2.50;76.82
38400;BME280;24180;42.676;23.320;2023-11-19T07:45:59;94965.69;;;2.49;76.82
38400;BME280;24180;42.676;23.320;2023-11-19T07:48:25;94930.81;;;2.48;76.82
38400;BME280;24180;42.676;23.320;2023-11-19T07:50:52;94926.50;;;2.62;76.79
38400;BME280;24180;42.676;23.320;2023-11-19T07:53:18;94941.03;;;2.48;76.82
38400;BME280;24180;42.676;23.320;2023-11-19T07:55:43;94934.09;;;2.50;76.82
38400;BME280;24180;42.676;23.320;2023-11-19T07:58:10;94991.25;;;2.49;76.82
38400;BME280;24180;42.676;23.320;2023-11-19T08:00:36;94920.31;;;2.38;76.81
38400;BME280;24180;42.676;23.320;2023-11-19T08:03:02;94940.94;;;2.49;76.82
38400;BME280;24180;42.676;23.320;2023-11-19T08:05:28;94946.59;;;2.40;76.81
38400;BME280;24180;42.676;23.320;2023-11-19T08:07:53;94957.47;;;2.44;76.82
38400;BME280;24180;42.676;23.320;2023-11-19T08:10:19;94938.66;;;2.45;76.82
38400;BME280;24180;42.676;23.320;2023-11-19T08:12:45;94979.47;;;2.60;76.83
38400;BME280;24180;42.676;23.320;2023-11-19T08:15:11;94964.69;;;2.51;76.82
38400;BME280;24180;42.676;23.320;2023-11-19T08:17:37;94984.94;;;2.54;76.83
38400;BME280;24180;42.676;23.320;2023-11-19T08:20:03;94985.13;;;2.51;76.82
38400;BME280;24180;42.676;23.320;2023-11-19T08:22:30;94943.31;;;2.38;76.81
38400;BME280;24180;42.676;23.320;2023-11-19T08:24:56;94978.25;;;2.38;76.81
38400;BME280;24180;42.676;23.320;2023-11-19T08:27:22;94984.19;;;2.38;76.81
38400;BME280;24180;42.676;23.320;2023-11-19T08:29:55;94985.56;;;2.58;76.83
38400;BME280;24180;42.676;23.320;2023-11-19T08:32:24;94964.88;;;2.48;76.82
38400;BME280;24180;42.676;23.320;2023-11-19T08:34:50;94988.06;;;2.59;76.83
38400;BME280;24180;42.676;23.320;2023-11-19T08:37:15;95003.59;;;2.85;76.85
38400;BME280;24180;42.676;23.320;2023-11-19T08:39:43;94996.53;;;2.74;76.84
38400;BME280;24180;42.676;23.320;2023-11-19T08:42:09;95009.44;;;2.72;76.84
38400;BME280;24180;42.676;23.320;2023-11-19T08:44:34;94981.00;;;2.77;76.85
38400;BME280;24180;42.676;23.320;2023-11-19T08:46:59;94996.28;;;2.93;76.86
38400;BME280;24180;42.676;23.320;2023-11-19T08:49:25;94968.44;;;2.88;76.86
38400;BME280;24180;42.676;23.320;2023-11-19T08:51:51;94996.72;;;2.99;76.87
38400;BME280;24180;42.676;23.320;2023-11-19T08:54:16;94981.75;;;2.93;76.87
38400;BME280;24180;42.676;23.320;2023-11-19T08:56:41;95004.97;;;3.04;76.88
38400;BME280;24180;42.676;23.320;2023-11-19T08:59:07;94984.84;;;2.98;76.87
38400;BME280;24180;42.676;23.320;2023-11-19T09:01:32;60059.09;;;24.23;78.79
38400;BME280;24180;42.676;23.320;2023-11-19T09:03:58;95007.06;;;3.12;76.88
38400;BME280;24180;42.676;23.320;2023-11-19T09:06:23;94957.28;;;2.75;76.84
38400;BME280;24180;42.676;23.320;2023-11-19T09:08:49;94972.91;;;2.85;76.85
38400;BME280;24180;42.676;23.320;2023-11-19T09:11:14;94993.91;;;2.75;76.85
38400;BME280;24180;42.676;23.320;2023-11-19T09:13:39;94925.22;;;2.69;76.84
38400;BME280;24180;42.676;23.320;2023-11-19T09:16:05;94949.16;;;2.82;76.86
38400;BME280;24180;42.676;23.320;2023-11-19T09:18:31;94943.84;;;2.86;76.85
38400;BME280;24180;42.676;23.320;2023-11-19T09:20:59;94991.16;;;3.21;76.89
38400;BME280;24180;42.676;23.320;2023-11-19T09:23:24;94984.56;;;3.17;76.89
38400;BME280;24180;42.676;23.320;2023-11-19T09:25:50;94995.16;;;3.11;76.88
38400;BME280;24180;42.676;23.320;2023-11-19T09:28:16;60015.88;;;24.39;78.79
38400;BME280;24180;42.676;23.320;2023-11-19T09:30:42;95003.75;;;3.10;76.87
38400;BME280;24180;42.676;23.320;2023-11-19T09:33:07;95019.38;;;3.19;76.89
38400;BME280;24180;42.676;23.320;2023-11-19T09:35:33;60032.56;;;24.39;78.78
38400;BME280;24180;42.676;23.320;2023-11-19T09:37:58;94959.53;;;3.08;76.88
38400;BME280;24180;42.676;23.320;2023-11-19T09:40:24;94974.34;;;3.17;76.89
38400;BME280;24180;42.676;23.320;2023-11-19T09:42:50;60074.50;;;24.23;78.78
38400;BME280;24180;42.676;23.320;2023-11-19T09:45:17;94976.34;;;3.12;76.88
38400;BME280;24180;42.676;23.320;2023-11-19T09:47:45;94932.25;;;2.94;76.87
38400;BME280;24180;42.676;23.320;2023-11-19T09:50:19;94933.63;;;2.86;76.85
38400;BME280;24180;42.676;23.320;2023-11-19T09:52:45;94948.59;;;2.92;76.86
38400;BME280;24180;42.676;23.320;2023-11-19T09:55:11;94899.47;;;2.87;76.85
38400;BME280;24180;42.676;23.320;2023-11-19T09:57:39;94912.47;;;3.10;76.88
38400;BME280;24180;42.676;23.320;2023-11-19T10:00:06;60007.50;;;24.23;78.78
38400;BME280;24180;42.676;23.320;2023-11-19T10:02:33;60032.56;;;24.39;78.79
38400;BME280;24180;42.676;23.320;2023-11-19T10:05:04;94927.69;;;3.80;76.95
38400;BME280;24180;42.676;23.320;2023-11-19T10:07:30;60032.56;;;24.39;78.78
38400;BME280;24180;42.676;23.320;2023-11-19T10:09:59;94909.50;;;3.97;76.97
38400;BME280;24180;42.676;23.320;2023-11-19T10:12:26;94942.06;;;3.95;76.96
38400;BME280;24180;42.676;23.320;2023-11-19T10:14:54;94891.03;;;3.92;76.96
38400;BME280;24180;42.676;23.320;2023-11-19T10:17:21;94904.69;;;3.65;76.93
38400;BME280;24180;42.676;23.320;2023-11-19T10:19:47;94930.31;;;3.65;76.93
38400;BME280;24180;42.676;23.320;2023-11-19T10:22:12;94925.84;;;3.82;77.04
38400;BME280;24180;42.676;23.320;2023-11-19T10:24:40;94942.31;;;4.42;77.00
38400;BME280;24180;42.676;23.320;2023-11-19T10:27:09;94946.63;;;4.80;77.04
38400;BME280;24180;42.676;23.320;2023-11-19T10:29:37;94922.69;;;5.04;77.06
38400;BME280;24180;42.676;23.320;2023-11-19T10:32:03;94919.25;;;5.29;77.08
38400;BME280;24180;42.676;23.320;2023-11-19T10:34:29;94926.84;;;5.18;77.07
38400;BME280;24180;42.676;23.320;2023-11-19T10:36:55;94916.06;;;4.77;77.12
38400;BME280;24180;42.676;23.320;2023-11-19T10:39:20;60032.56;;;24.39;78.88
38400;BME280;24180;42.676;23.320;2023-11-19T10:41:46;94856.81;;;3.93;76.96
38400;BME280;24180;42.676;23.320;2023-11-19T10:44:12;94892.56;;;3.94;77.05
38400;BME280;24180;42.676;23.320;2023-11-19T10:46:40;94907.44;;;4.14;76.98
38400;BME280;24180;42.676;23.320;2023-11-19T10:49:06;94935.75;;;4.38;77.08
38400;BME280;24180;42.676;23.320;2023-11-19T10:51:32;94931.25;;;4.54;77.01
38400;BME280;24180;42.676;23.320;2023-11-19T10:54:05;60015.88;;;24.39;78.88
38400;BME280;24180;42.676;23.320;2023-11-19T10:56:32;94902.53;;;4.62;77.12
38400;BME280;24180;42.676;23.320;2023-11-19T10:58:59;94892.91;;;4.40;77.00
38400;BME280;24180;42.676;23.320;2023-11-19T11:01:28;94896.81;;;4.33;77.09
38400;BME280;24180;42.676;23.320;2023-11-19T11:03:59;60032.56;;;24.39;78.88
38400;BME280;24180;42.676;23.320;2023-11-19T11:06:27;60032.56;;;24.39;78.88
38400;BME280;24180;42.676;23.320;2023-11-19T11:08:54;94872.81;;;4.34;77.09
38400;BME280;24180;42.676;23.320;2023-11-19T11:11:20;60032.56;;;24.39;78.88
38400;BME280;24180;42.676;23.320;2023-11-19T11:13:49;60032.56;;;24.39;78.88
38400;BME280;24180;42.676;23.320;2023-11-19T11:16:18;94882.44;;;4.31;77.08
38400;BME280;24180;42.676;23.320;2023-11-19T11:18:46;94893.50;;;4.18;77.07
38400;BME280;24180;42.676;23.320;2023-11-19T11:21:17;60032.56;;;24.39;78.88
38400;BME280;24180;42.676;23.320;2023-11-19T11:26:58;60032.56;;;24.39;78.88
38400;BME280;24180;42.676;23.320;2023-11-19T11:35:12;60015.88;;;24.39;78.88
38400;BME280;24180;42.676;23.320;2023-11-19T11:37:59;60032.56;;;24.39;78.88
38400;BME280;24180;42.676;23.320;2023-11-19T11:40:26;60015.88;;;24.23;78.90
38400;BME280;24180;42.676;23.320;2023-11-19T11:42:52;60032.56;;;24.39;78.88
38400;BME280;24180;42.676;23.320;2023-11-19T11:45:18;60015.88;;;24.23;78.88
38400;BME280;24180;42.676;23.320;2023-11-19T11:50:19;60032.56;;;24.39;78.88
38400;BME280;24180;42.676;23.320;2023-11-19T11:55:36;60032.56;;;24.23;78.90
38400;BME280;24180;42.676;23.320;2023-11-19T11:58:08;60032.56;;;24.39;78.88
38400;BME280;24180;42.676;23.320;2023-11-19T12:00:41;60032.56;;;24.39;78.88
38400;BME280;24180;42.676;23.320;2023-11-19T12:03:07;60032.56;;;24.39;78.88
38400;BME280;24180;42.676;23.320;2023-11-19T12:05:38;60015.88;;;24.39;78.88
38400;BME280;24180;42.676;23.320;2023-11-19T12:08:05;60015.88;;;24.23;78.88
38400;BME280;24180;42.676;23.320;2023-11-19T12:10:53;60015.88;;;24.23;78.88
38400;BME280;24180;42.676;23.320;2023-11-19T12:13:20;60015.88;;;24.23;78.88
38400;BME280;24180;42.676;23.320;2023-11-19T12:18:26;60032.56;;;25.68;78.88
38400;BME280;24180;42.676;23.320;2023-11-19T12:20:51;60015.88;;;24.23;78.88
38400;BME280;24180;42.676;23.320;2023-11-19T12:23:17;60015.88;;;24.23;78.88
38400;BME280;24180;42.676;23.320;2023-11-19T12:25:42;60032.56;;;24.39;78.88
38400;BME280;24180;42.676;23.320;2023-11-19T12:28:13;60015.88;;;24.23;78.88
38400;BME280;24180;42.676;23.320;2023-11-19T12:30:39;60015.88;;;24.23;78.88
38400;BME280;24180;42.676;23.320;2023-11-19T12:33:08;60015.88;;;24.23;78.88
38400;BME280;24180;42.676;23.320;2023-11-19T12:35:44;60015.88;;;24.23;78.88
38400;BME280;24180;42.676;23.320;2023-11-19T12:38:26;60032.56;;;24.39;78.88
38400;BME280;24180;42.676;23.320;2023-11-19T12:41:04;60015.88;;;24.23;78.88
38400;BME280;24180;42.676;23.320;2023-11-19T12:43:30;60032.56;;;24.39;78.88
38400;BME280;24180;42.676;23.320;2023-11-19T12:45:56;60032.56;;;24.39;78.88
38400;BME280;24180;42.676;23.320;2023-11-19T12:48:22;60032.56;;;24.39;78.88
38400;BME280;24180;42.676;23.320;2023-11-19T12:50:57;60015.88;;;24.23;78.88
38400;BME280;24180;42.676;23.320;2023-11-19T12:53:25;60032.56;;;24.39;78.88
38400;BME280;24180;42.676;23.320;2023-11-19T12:55:52;60032.56;;;24.39;78.88
38400;BME280;24180;42.676;23.320;2023-11-19T12:58:36;60032.56;;;24.39;78.88
38400;BME280;24180;42.676;23.320;2023-11-19T13:01:05;60015.88;;;24.23;78.88
38400;BME280;24180;42.676;23.320;2023-11-19T13:03:35;60032.56;;;24.39;78.88
38400;BME280;24180;42.676;23.320;2023-11-19T13:06:12;60015.88;;;24.23;78.88
38400;BME280;24180;42.676;23.320;2023-11-19T13:08:46;60015.88;;;24.23;78.88
38400;BME280;24180;42.676;23.320;2023-11-19T13:11:14;60015.88;;;24.23;78.88
38400;BME280;24180;42.676;23.320;2023-11-19T13:14:04;94730.78;;;4.73;77.12